createdAt,value
2019-02-08T00:00:12.063Z,71.98
2019-02-08T00:00:57.923Z,71.69
2019-02-08T00:01:32.255Z,71.86
2019-02-08T00:02:06.941Z,71.90
2019-02-08T00:02:41.311Z,71.60
2019-02-08T00:03:15.991Z,71.54
2019-02-08T00:03:50.414Z,71.68
2019-02-08T00:04:24.837Z,71.74
2019-02-08T00:04:59.430Z,71.50
2019-02-08T00:05:33.867Z,71.22
2019-02-08T00:06:08.773Z,71.21
2019-02-08T00:06:44.157Z,71.18
2019-02-08T00:07:18.650Z,71.32
2019-02-08T00:07:53.186Z,71.08
2019-02-08T00:08:27.564Z,70.96
2019-02-08T00:09:01.970Z,70.79
2019-02-08T00:09:36.409Z,70.63
2019-02-08T00:10:11.224Z,70.53
2019-02-08T00:10:45.939Z,70.39
2019-02-08T00:11:20.258Z,70.32
2019-02-08T00:11:54.596Z,70.31
2019-02-08T00:12:28.921Z,70.50
2019-02-08T00:13:03.302Z,70.74
2019-02-08T00:13:37.607Z,70.83
2019-02-08T00:14:12.094Z,70.97
2019-02-08T00:14:46.501Z,70.60
2019-02-08T00:15:21.441Z,70.61
2019-02-08T00:15:56.087Z,70.65
2019-02-08T00:16:30.415Z,70.46
2019-02-08T00:17:04.774Z,70.43
2019-02-08T00:17:39.104Z,70.55
2019-02-08T00:18:13.836Z,70.22
2019-02-08T00:18:48.513Z,70.05
2019-02-08T00:19:22.822Z,70.12
2019-02-08T00:19:57.160Z,70.26
2019-02-08T00:20:31.465Z,70.15
2019-02-08T00:21:06.585Z,70.08
2019-02-08T00:21:41.258Z,70.09
2019-02-08T00:22:15.620Z,70.23
2019-02-08T00:22:50.244Z,70.30
2019-02-08T00:23:27.023Z,70.29
2019-02-08T00:24:00.534Z,70.35
2019-02-08T00:24:35.168Z,70.32
2019-02-08T00:25:13.765Z,70.40
2019-02-08T00:25:48.106Z,70.39
2019-02-08T00:26:22.437Z,70.36
2019-02-08T00:26:56.735Z,70.18
2019-02-08T00:27:31.333Z,70.05
2019-02-08T00:28:06.102Z,69.97
2019-02-08T00:28:40.727Z,70.02
2019-02-08T00:29:15.100Z,70.14
2019-02-08T00:29:49.485Z,70.14
2019-02-08T00:30:24.483Z,70.03
2019-02-08T00:30:58.814Z,70.25
2019-02-08T00:31:33.118Z,70.27
2019-02-08T00:32:07.433Z,70.28
2019-02-08T00:32:42.040Z,70.39
2019-02-08T00:33:16.516Z,70.19
2019-02-08T00:33:50.853Z,69.82
2019-02-08T00:34:25.170Z,69.60
2019-02-08T00:34:59.508Z,69.53
2019-02-08T00:35:34.180Z,69.58
2019-02-08T00:36:08.491Z,69.42
2019-02-08T00:36:42.865Z,69.41
2019-02-08T00:37:17.244Z,69.25
2019-02-08T00:37:52.720Z,69.36
2019-02-08T00:38:27.033Z,69.23
2019-02-08T00:39:01.352Z,69.23
2019-02-08T00:39:35.944Z,69.37
2019-02-08T00:40:12.047Z,69.24
2019-02-08T00:40:46.387Z,69.16
2019-02-08T00:41:20.984Z,69.22
2019-02-08T00:41:55.314Z,69.17
2019-02-08T00:42:29.628Z,69.29
2019-02-08T00:43:03.945Z,69.29
2019-02-08T00:43:38.518Z,69.18
2019-02-08T00:44:13.158Z,68.90
2019-02-08T00:44:47.511Z,69.20
2019-02-08T00:45:22.040Z,69.45
2019-02-08T00:45:56.372Z,69.27
2019-02-08T00:46:31.239Z,69.25
2019-02-08T00:47:05.657Z,69.27
2019-02-08T00:47:40.075Z,69.18
2019-02-08T00:48:14.407Z,69.32
2019-02-08T00:48:48.765Z,68.97
2019-02-08T00:49:23.368Z,68.92
2019-02-08T00:49:57.943Z,69.11
2019-02-08T00:50:32.384Z,69.08
2019-02-08T00:51:06.957Z,69.21
2019-02-08T00:51:41.338Z,69.17
2019-02-08T00:52:15.667Z,69.05
2019-02-08T00:52:50.195Z,69.02
2019-02-08T00:53:24.515Z,69.07
2019-02-08T00:53:59.083Z,69.13
2019-02-08T00:54:33.395Z,69.32
2019-02-08T00:55:08.520Z,69.37
2019-02-08T00:55:42.861Z,69.21
2019-02-08T00:56:17.437Z,69.09
2019-02-08T00:56:51.742Z,69.01
2019-02-08T00:57:26.141Z,68.94
2019-02-08T00:58:00.461Z,68.87
2019-02-08T00:58:34.863Z,68.91
2019-02-08T00:59:09.249Z,68.95
2019-02-08T00:59:46.355Z,69.26
2019-02-08T01:00:22.193Z,69.49
2019-02-08T01:00:56.500Z,69.49
2019-02-08T01:01:30.808Z,69.40
2019-02-08T01:02:05.156Z,69.23
2019-02-08T01:02:40.239Z,69.25
2019-02-08T01:03:14.571Z,69.19
2019-02-08T01:03:48.951Z,69.34
2019-02-08T01:04:23.269Z,69.36
2019-02-08T01:04:57.924Z,69.31
2019-02-08T01:05:32.287Z,69.37
2019-02-08T01:06:06.634Z,69.42
2019-02-08T01:06:40.993Z,69.52
2019-02-08T01:07:15.328Z,69.39
2019-02-08T01:07:50.618Z,69.29
2019-02-08T01:08:25.795Z,69.25
2019-02-08T01:09:00.119Z,69.27
2019-02-08T01:09:34.748Z,69.28
2019-02-08T01:10:12.800Z,69.27
2019-02-08T01:10:47.412Z,69.16
2019-02-08T01:11:21.717Z,69.36
2019-02-08T01:11:56.316Z,69.11
2019-02-08T01:12:30.621Z,69.28
2019-02-08T01:13:06.117Z,69.37
2019-02-08T01:13:40.530Z,69.50
2019-02-08T01:14:14.860Z,69.50
2019-02-08T01:14:49.196Z,69.34
2019-02-08T01:15:24.612Z,69.27
2019-02-08T01:15:58.889Z,69.11
2019-02-08T01:16:33.197Z,69.29
2019-02-08T01:17:07.782Z,69.32
2019-02-08T01:17:42.422Z,69.36
2019-02-08T01:18:16.792Z,69.58
2019-02-08T01:18:51.084Z,69.71
2019-02-08T01:19:25.446Z,69.85
2019-02-08T01:19:59.752Z,69.61
2019-02-08T01:20:34.440Z,69.50
2019-02-08T01:21:09.019Z,69.58
2019-02-08T01:21:43.442Z,69.58
2019-02-08T01:22:18.033Z,69.67
2019-02-08T01:22:52.651Z,69.43
2019-02-08T01:23:27.280Z,69.44
2019-02-08T01:24:02.339Z,69.47
2019-02-08T01:24:36.719Z,69.58
2019-02-08T01:25:14.151Z,69.42
2019-02-08T01:25:48.834Z,69.44
2019-02-08T01:26:23.228Z,69.51
2019-02-08T01:26:57.700Z,69.59
2019-02-08T01:27:32.343Z,69.60
2019-02-08T01:28:06.725Z,69.53
2019-02-08T01:28:41.150Z,69.50
2019-02-08T01:29:15.553Z,69.56
2019-02-08T01:29:50.215Z,69.38
2019-02-08T01:30:29.153Z,69.37
2019-02-08T01:31:03.547Z,69.23
2019-02-08T01:31:37.931Z,69.34
2019-02-08T01:32:12.418Z,69.21
2019-02-08T01:32:48.234Z,69.35
2019-02-08T01:33:22.865Z,69.52
2019-02-08T01:33:57.500Z,69.13
2019-02-08T01:34:32.131Z,69.15
2019-02-08T01:35:07.334Z,68.94
2019-02-08T01:35:41.840Z,69.01
2019-02-08T01:36:16.487Z,68.98
2019-02-08T01:36:51.143Z,69.19
2019-02-08T01:37:25.824Z,69.14
2019-02-08T01:38:00.608Z,69.08
2019-02-08T01:38:34.998Z,69.19
2019-02-08T01:39:09.719Z,69.17
2019-02-08T01:39:44.406Z,68.93
2019-02-08T01:40:26.586Z,68.81
2019-02-08T01:41:00.898Z,68.86
2019-02-08T01:41:35.238Z,68.65
2019-02-08T01:42:09.564Z,68.99
2019-02-08T01:42:43.915Z,69.13
2019-02-08T01:43:18.256Z,69.27
2019-02-08T01:43:52.586Z,69.38
2019-02-08T01:44:26.999Z,69.37
2019-02-08T01:45:01.354Z,69.23
2019-02-08T01:45:36.100Z,69.00
2019-02-08T01:46:10.778Z,69.12
2019-02-08T01:46:45.376Z,69.07
2019-02-08T01:47:19.965Z,69.21
2019-02-08T01:47:54.934Z,69.05
2019-02-08T01:48:29.550Z,68.91
2019-02-08T01:49:04.120Z,68.94
2019-02-08T01:49:38.476Z,69.05
2019-02-08T01:50:15.550Z,69.00
2019-02-08T01:50:50.188Z,69.01
2019-02-08T01:51:24.557Z,68.81
2019-02-08T01:51:59.200Z,69.12
2019-02-08T01:52:33.823Z,69.11
2019-02-08T01:53:08.434Z,69.12
2019-02-08T01:53:48.582Z,69.30
2019-02-08T01:54:19.611Z,69.23
2019-02-08T01:54:53.981Z,69.14
2019-02-08T01:55:28.473Z,69.27
2019-02-08T01:56:02.824Z,69.19
2019-02-08T01:56:37.426Z,69.31
2019-02-08T01:57:11.814Z,69.52
2019-02-08T01:57:48.084Z,69.40
2019-02-08T01:58:22.775Z,69.52
2019-02-08T01:58:57.424Z,69.52
2019-02-08T01:59:32.036Z,69.47
2019-02-08T02:00:14.967Z,69.46
2019-02-08T02:00:49.464Z,69.49
2019-02-08T02:01:23.856Z,69.54
2019-02-08T02:01:58.208Z,69.71
2019-02-08T02:02:32.577Z,69.47
2019-02-08T02:03:08.375Z,69.29
2019-02-08T02:03:42.991Z,69.23
2019-02-08T02:04:17.600Z,69.45
2019-02-08T02:04:52.070Z,69.45
2019-02-08T02:05:26.536Z,69.25
2019-02-08T02:06:00.910Z,69.31
2019-02-08T02:06:35.274Z,69.15
2019-02-08T02:07:09.663Z,69.33
2019-02-08T02:07:44.036Z,69.32
2019-02-08T02:08:18.394Z,69.12
2019-02-08T02:08:52.763Z,69.32
2019-02-08T02:09:27.426Z,69.26
2019-02-08T02:10:01.788Z,69.29
2019-02-08T02:10:40.813Z,69.15
2019-02-08T02:11:15.198Z,69.08
2019-02-08T02:11:49.660Z,69.06
2019-02-08T02:12:24.196Z,69.09
2019-02-08T02:12:58.668Z,68.77
2019-02-08T02:13:33.016Z,68.91
2019-02-08T02:14:07.764Z,68.74
2019-02-08T02:14:42.125Z,68.91
2019-02-08T02:15:16.929Z,69.13
2019-02-08T02:15:51.313Z,68.99
2019-02-08T02:16:25.799Z,68.82
2019-02-08T02:17:00.137Z,68.71
2019-02-08T02:17:34.815Z,68.79
2019-02-08T02:18:09.851Z,68.95
2019-02-08T02:18:44.226Z,68.91
2019-02-08T02:19:18.850Z,69.06
2019-02-08T02:19:53.278Z,69.16
2019-02-08T02:20:32.950Z,69.09
2019-02-08T02:21:07.317Z,69.18
2019-02-08T02:21:41.705Z,69.16
2019-02-08T02:22:16.166Z,69.18
2019-02-08T02:22:50.795Z,69.35
2019-02-08T02:23:25.143Z,69.21
2019-02-08T02:24:00.172Z,69.21
2019-02-08T02:24:34.775Z,68.96
2019-02-08T02:25:10.059Z,69.19
2019-02-08T02:25:44.542Z,69.34
2019-02-08T02:26:19.226Z,69.38
2019-02-08T02:26:53.570Z,69.37
2019-02-08T02:27:28.220Z,69.43
2019-02-08T02:28:02.614Z,69.34
2019-02-08T02:28:37.228Z,69.22
2019-02-08T02:29:11.214Z,69.37
2019-02-08T02:29:48.593Z,69.34
2019-02-08T02:30:28.097Z,69.32
2019-02-08T02:31:02.554Z,69.46
2019-02-08T02:31:37.238Z,69.38
2019-02-08T02:32:11.664Z,69.27
2019-02-08T02:32:46.161Z,69.23
2019-02-08T02:33:20.715Z,69.36
2019-02-08T02:33:55.079Z,69.11
2019-02-08T02:34:29.433Z,69.13
2019-02-08T02:35:04.697Z,69.05
2019-02-08T02:35:39.268Z,68.92
2019-02-08T02:36:13.702Z,69.49
2019-02-08T02:36:48.348Z,69.49
2019-02-08T02:37:23.248Z,69.22
2019-02-08T02:37:57.598Z,69.32
2019-02-08T02:38:31.970Z,69.21
2019-02-08T02:39:09.253Z,69.27
2019-02-08T02:39:43.933Z,69.36
2019-02-08T02:40:18.515Z,69.39
2019-02-08T02:40:53.123Z,69.49
2019-02-08T02:41:27.496Z,69.34
2019-02-08T02:42:02.210Z,69.23
2019-02-08T02:42:36.545Z,69.18
2019-02-08T02:43:11.380Z,69.32
2019-02-08T02:43:46.140Z,69.13
2019-02-08T02:44:20.513Z,68.84
2019-02-08T02:44:55.185Z,68.74
2019-02-08T02:45:34.759Z,68.84
2019-02-08T02:46:10.013Z,68.77
2019-02-08T02:46:44.370Z,68.72
2019-02-08T02:47:19.020Z,68.72
2019-02-08T02:47:53.349Z,68.46
2019-02-08T02:48:27.696Z,68.48
2019-02-08T02:49:02.043Z,68.61
2019-02-08T02:49:36.392Z,68.93
2019-02-08T02:50:11.034Z,69.14
2019-02-08T02:50:45.463Z,68.98
2019-02-08T02:51:19.913Z,69.11
2019-02-08T02:51:54.260Z,69.02
2019-02-08T02:52:28.605Z,68.90
2019-02-08T02:53:02.969Z,68.74
2019-02-08T02:53:37.349Z,68.61
2019-02-08T02:54:11.722Z,68.73
2019-02-08T02:54:46.236Z,68.78
2019-02-08T02:55:23.099Z,69.02
2019-02-08T02:55:57.501Z,69.02
2019-02-08T02:56:32.113Z,68.67
2019-02-08T02:57:06.472Z,68.70
2019-02-08T02:57:40.840Z,68.79
2019-02-08T02:58:15.235Z,68.98
2019-02-08T02:58:49.635Z,68.90
2019-02-08T02:59:24.260Z,68.99
2019-02-08T02:59:58.946Z,68.85
2019-02-08T03:00:36.385Z,68.81
2019-02-08T03:01:10.816Z,69.00
2019-02-08T03:01:45.210Z,69.07
2019-02-08T03:02:19.838Z,69.13
2019-02-08T03:02:54.562Z,68.96
2019-02-08T03:03:28.918Z,69.15
2019-02-08T03:04:03.288Z,69.12
2019-02-08T03:04:37.641Z,69.21
2019-02-08T03:05:12.467Z,69.22
2019-02-08T03:05:47.136Z,69.19
2019-02-08T03:06:21.504Z,69.21
2019-02-08T03:06:56.121Z,69.39
2019-02-08T03:07:30.545Z,69.63
2019-02-08T03:08:07.470Z,69.72
2019-02-08T03:08:41.888Z,69.69
2019-02-08T03:09:16.349Z,69.85
2019-02-08T03:09:50.985Z,69.79
2019-02-08T03:10:25.587Z,69.97
2019-02-08T03:11:00.232Z,70.00
2019-02-08T03:11:34.993Z,69.91
2019-02-08T03:12:09.368Z,69.99
2019-02-08T03:12:44.007Z,69.83
2019-02-08T03:13:18.820Z,69.63
2019-02-08T03:13:53.426Z,69.82
2019-02-08T03:14:27.792Z,69.76
2019-02-08T03:15:02.461Z,69.54
2019-02-08T03:15:36.929Z,69.75
2019-02-08T03:16:11.341Z,69.62
2019-02-08T03:16:45.765Z,69.89
2019-02-08T03:17:20.487Z,69.74
2019-02-08T03:17:54.838Z,69.73
2019-02-08T03:18:29.210Z,69.84
2019-02-08T03:19:03.796Z,70.05
2019-02-08T03:19:38.403Z,69.97
2019-02-08T03:20:14.489Z,69.91
2019-02-08T03:20:49.067Z,69.92
2019-02-08T03:21:23.442Z,69.91
2019-02-08T03:21:57.890Z,70.02
2019-02-08T03:22:32.551Z,69.75
2019-02-08T03:23:06.922Z,69.76
2019-02-08T03:23:41.295Z,69.80
2019-02-08T03:24:16.396Z,69.81
2019-02-08T03:24:50.825Z,69.62
2019-02-08T03:25:25.784Z,69.70
2019-02-08T03:26:00.466Z,69.65
2019-02-08T03:26:35.121Z,69.78
2019-02-08T03:27:09.470Z,69.86
2019-02-08T03:27:43.997Z,70.05
2019-02-08T03:28:18.372Z,70.14
2019-02-08T03:28:52.739Z,70.33
2019-02-08T03:29:27.190Z,70.32
2019-02-08T03:30:01.855Z,70.40
2019-02-08T03:30:40.368Z,70.27
2019-02-08T03:31:14.788Z,70.25
2019-02-08T03:31:49.253Z,70.07
2019-02-08T03:32:23.624Z,70.15
2019-02-08T03:32:58.250Z,70.08
2019-02-08T03:33:32.596Z,70.23
2019-02-08T03:34:07.055Z,70.46
2019-02-08T03:34:41.714Z,70.70
2019-02-08T03:35:18.980Z,70.69
2019-02-08T03:35:53.609Z,70.44
2019-02-08T03:36:27.986Z,70.20
2019-02-08T03:37:02.326Z,70.23
2019-02-08T03:37:36.678Z,70.53
2019-02-08T03:38:11.895Z,70.69
2019-02-08T03:38:46.263Z,70.83
2019-02-08T03:39:20.653Z,70.55
2019-02-08T03:39:55.101Z,70.72
2019-02-08T03:40:29.655Z,70.81
2019-02-08T03:41:04.040Z,70.78
2019-02-08T03:41:38.415Z,70.69
2019-02-08T03:42:12.825Z,70.62
2019-02-08T03:42:47.505Z,70.62
2019-02-08T03:43:22.159Z,70.68
2019-02-08T03:43:56.838Z,70.79
2019-02-08T03:44:31.240Z,70.87
2019-02-08T03:45:07.752Z,70.76
2019-02-08T03:45:42.927Z,70.82
2019-02-08T03:46:17.298Z,70.80
2019-02-08T03:46:51.664Z,70.86
2019-02-08T03:47:26.070Z,70.91
2019-02-08T03:48:00.573Z,71.01
2019-02-08T03:48:35.195Z,71.20
2019-02-08T03:49:09.848Z,71.12
2019-02-08T03:49:44.508Z,71.25
2019-02-08T03:50:19.825Z,71.36
2019-02-08T03:50:54.238Z,71.39
2019-02-08T03:51:28.641Z,71.33
2019-02-08T03:52:03.297Z,71.45
2019-02-08T03:52:37.936Z,71.42
2019-02-08T03:53:12.910Z,71.62
2019-02-08T03:53:47.370Z,71.70
2019-02-08T03:54:21.720Z,71.72
2019-02-08T03:54:56.116Z,71.56
2019-02-08T03:55:30.492Z,71.57
2019-02-08T03:56:05.263Z,71.67
2019-02-08T03:56:39.651Z,71.61
2019-02-08T03:57:14.005Z,71.56
2019-02-08T03:57:48.544Z,71.54
2019-02-08T03:58:22.964Z,71.59
2019-02-08T03:58:57.672Z,71.71
2019-02-08T03:59:32.375Z,71.73
2019-02-08T04:00:09.945Z,71.70
2019-02-08T04:00:54.808Z,71.64
2019-02-08T04:01:29.205Z,71.78
2019-02-08T04:02:03.589Z,71.94
2019-02-08T04:02:37.943Z,72.17
2019-02-08T04:03:12.304Z,72.13
2019-02-08T04:03:46.958Z,72.00
2019-02-08T04:04:22.089Z,72.02
2019-02-08T04:04:56.692Z,72.04
2019-02-08T04:05:31.429Z,71.98
2019-02-08T04:06:06.520Z,71.82
2019-02-08T04:06:41.138Z,71.82
2019-02-08T04:07:15.510Z,71.91
2019-02-08T04:07:50.119Z,72.04
2019-02-08T04:08:24.484Z,72.21
2019-02-08T04:08:58.870Z,72.18
2019-02-08T04:09:33.514Z,72.22
2019-02-08T04:10:09.613Z,72.25
2019-02-08T04:10:43.977Z,72.14
2019-02-08T04:11:18.630Z,71.82
2019-02-08T04:11:53.278Z,71.64
2019-02-08T04:12:27.640Z,71.62
2019-02-08T04:13:02.010Z,71.56
2019-02-08T04:13:36.356Z,71.73
2019-02-08T04:14:10.735Z,71.86
2019-02-08T04:14:45.106Z,71.87
2019-02-08T04:15:19.694Z,71.89
2019-02-08T04:15:54.052Z,71.97
2019-02-08T04:16:28.454Z,71.81
2019-02-08T04:17:02.817Z,71.64
2019-02-08T04:17:37.485Z,71.86
2019-02-08T04:18:11.841Z,71.88
2019-02-08T04:18:46.426Z,71.81
2019-02-08T04:19:21.054Z,71.87
2019-02-08T04:19:55.696Z,71.71
2019-02-08T04:20:30.089Z,71.82
2019-02-08T04:21:04.698Z,71.85
2019-02-08T04:21:39.323Z,71.90
2019-02-08T04:22:14.004Z,71.75
2019-02-08T04:22:48.369Z,71.47
2019-02-08T04:23:22.739Z,71.43
2019-02-08T04:23:57.377Z,71.16
2019-02-08T04:24:31.747Z,71.10
2019-02-08T04:25:06.546Z,71.33
2019-02-08T04:25:40.880Z,71.53
2019-02-08T04:26:15.244Z,71.48
2019-02-08T04:26:50.184Z,71.41
2019-02-08T04:27:24.751Z,71.44
2019-02-08T04:27:59.135Z,71.58
2019-02-08T04:28:33.495Z,71.44
2019-02-08T04:29:08.090Z,71.26
2019-02-08T04:29:42.717Z,71.07
2019-02-08T04:30:20.398Z,71.22
2019-02-08T04:30:55.030Z,71.44
2019-02-08T04:31:29.706Z,71.44
2019-02-08T04:32:04.090Z,71.53
2019-02-08T04:32:38.441Z,71.21
2019-02-08T04:33:12.808Z,71.29
2019-02-08T04:33:47.174Z,71.36
2019-02-08T04:34:21.546Z,71.30
2019-02-08T04:34:55.937Z,71.18
2019-02-08T04:35:30.724Z,71.25
2019-02-08T04:36:05.182Z,71.22
2019-02-08T04:36:39.580Z,71.19
2019-02-08T04:37:14.234Z,71.16
2019-02-08T04:37:48.606Z,71.19
2019-02-08T04:38:23.359Z,71.04
2019-02-08T04:38:58.112Z,71.14
2019-02-08T04:39:32.751Z,71.16
2019-02-08T04:40:07.726Z,70.87
2019-02-08T04:40:42.108Z,70.80
2019-02-08T04:41:16.710Z,70.67
2019-02-08T04:41:51.342Z,70.81
2019-02-08T04:42:25.721Z,70.98
2019-02-08T04:43:00.144Z,70.97
2019-02-08T04:43:34.627Z,70.63
2019-02-08T04:44:08.976Z,70.67
2019-02-08T04:44:43.342Z,70.56
2019-02-08T04:45:18.276Z,70.88
2019-02-08T04:45:52.658Z,70.83
2019-02-08T04:46:27.343Z,70.58
2019-02-08T04:47:01.828Z,70.63
2019-02-08T04:47:36.539Z,70.74
2019-02-08T04:48:11.147Z,70.86
2019-02-08T04:48:45.501Z,70.64
2019-02-08T04:49:19.867Z,70.52
2019-02-08T04:49:54.551Z,70.49
2019-02-08T04:50:29.209Z,70.36
2019-02-08T04:51:03.592Z,70.31
2019-02-08T04:51:37.957Z,70.58
2019-02-08T04:52:12.658Z,70.51
2019-02-08T04:52:47.314Z,70.25
2019-02-08T04:53:21.998Z,70.28
2019-02-08T04:53:56.406Z,70.31
2019-02-08T04:54:38.224Z,70.41
2019-02-08T04:55:07.206Z,70.60
2019-02-08T04:55:41.822Z,70.70
2019-02-08T04:56:16.182Z,70.87
2019-02-08T04:56:50.571Z,70.76
2019-02-08T04:57:25.285Z,70.60
2019-02-08T04:58:00.598Z,70.73
2019-02-08T04:58:35.901Z,70.36
2019-02-08T04:59:10.288Z,70.36
2019-02-08T04:59:44.956Z,70.55
2019-02-08T05:00:22.207Z,70.73
2019-02-08T05:00:56.611Z,70.79
2019-02-08T05:01:31.290Z,70.55
2019-02-08T05:02:05.884Z,70.73
2019-02-08T05:02:40.903Z,70.86
2019-02-08T05:03:15.498Z,70.71
2019-02-08T05:03:50.182Z,70.88
2019-02-08T05:04:24.590Z,70.82
2019-02-08T05:04:59.012Z,70.92
2019-02-08T05:05:33.440Z,70.90
2019-02-08T05:06:07.887Z,71.08
2019-02-08T05:06:42.293Z,71.03
2019-02-08T05:07:17.234Z,70.89
2019-02-08T05:07:52.077Z,71.02
2019-02-08T05:08:26.502Z,71.17
2019-02-08T05:09:01.001Z,71.53
2019-02-08T05:09:35.392Z,71.70
2019-02-08T05:10:10.696Z,71.58
2019-02-08T05:10:45.139Z,71.32
2019-02-08T05:11:19.934Z,71.27
2019-02-08T05:11:54.669Z,71.33
2019-02-08T05:12:29.449Z,71.51
2019-02-08T05:13:03.913Z,71.33
2019-02-08T05:13:38.506Z,71.33
2019-02-08T05:14:12.855Z,71.50
2019-02-08T05:14:47.546Z,71.55
2019-02-08T05:15:23.173Z,71.51
2019-02-08T05:15:57.757Z,71.64
2019-02-08T05:16:32.659Z,71.71
2019-02-08T05:17:07.290Z,71.61
2019-02-08T05:17:41.898Z,71.57
2019-02-08T05:18:16.264Z,71.34
2019-02-08T05:18:50.712Z,71.67
2019-02-08T05:19:25.183Z,71.67
2019-02-08T05:19:59.668Z,71.69
2019-02-08T05:20:34.040Z,71.81
2019-02-08T05:21:08.395Z,71.81
2019-02-08T05:21:43.026Z,71.70
2019-02-08T05:22:17.393Z,71.50
2019-02-08T05:22:51.839Z,71.39
2019-02-08T05:23:26.238Z,71.39
2019-02-08T05:24:00.919Z,71.83
2019-02-08T05:24:35.290Z,71.97
2019-02-08T05:25:10.166Z,72.11
2019-02-08T05:25:44.756Z,71.89
2019-02-08T05:26:19.386Z,71.73
2019-02-08T05:26:54.060Z,71.62
2019-02-08T05:27:28.732Z,71.71
2019-02-08T05:28:03.343Z,71.94
2019-02-08T05:28:37.696Z,71.96
2019-02-08T05:29:12.072Z,72.02
2019-02-08T05:29:46.726Z,72.16
2019-02-08T05:30:23.914Z,72.24
2019-02-08T05:30:58.313Z,72.33
2019-02-08T05:31:32.686Z,72.05
2019-02-08T05:32:07.378Z,72.47
2019-02-08T05:32:42.029Z,72.53
2019-02-08T05:33:16.682Z,72.32
2019-02-08T05:33:51.701Z,72.48
2019-02-08T05:34:26.246Z,72.53
2019-02-08T05:35:00.682Z,72.60
2019-02-08T05:35:35.336Z,72.66
2019-02-08T05:36:09.679Z,72.83
2019-02-08T05:36:44.078Z,72.79
2019-02-08T05:37:19.303Z,72.81
2019-02-08T05:37:53.790Z,72.65
2019-02-08T05:38:28.227Z,72.38
2019-02-08T05:39:02.620Z,72.44
2019-02-08T05:39:37.474Z,72.55
2019-02-08T05:40:12.172Z,72.41
2019-02-08T05:40:46.549Z,72.52
2019-02-08T05:41:21.213Z,72.40
2019-02-08T05:41:56.160Z,72.27
2019-02-08T05:42:30.595Z,72.25
2019-02-08T05:43:06.121Z,72.40
2019-02-08T05:43:41.020Z,72.71
2019-02-08T05:44:15.666Z,72.63
2019-02-08T05:44:50.302Z,72.46
2019-02-08T05:45:24.866Z,72.40
2019-02-08T05:45:59.270Z,72.50
2019-02-08T05:46:33.680Z,72.66
2019-02-08T05:47:08.556Z,72.99
2019-02-08T05:47:42.979Z,72.97
2019-02-08T05:48:17.326Z,73.10
2019-02-08T05:48:51.698Z,73.26
2019-02-08T05:49:26.119Z,73.40
2019-02-08T05:50:00.512Z,73.30
2019-02-08T05:50:34.913Z,73.31
2019-02-08T05:51:09.294Z,73.38
2019-02-08T05:51:43.743Z,73.50
2019-02-08T05:52:18.135Z,73.45
2019-02-08T05:52:52.612Z,73.47
2019-02-08T05:53:27.128Z,73.38
2019-02-08T05:54:01.855Z,73.42
2019-02-08T05:54:36.203Z,73.50
2019-02-08T05:55:12.449Z,73.40
2019-02-08T05:55:46.813Z,73.02
2019-02-08T05:56:21.429Z,73.00
2019-02-08T05:56:55.810Z,72.98
2019-02-08T05:57:30.229Z,73.04
2019-02-08T05:58:04.902Z,73.33
2019-02-08T05:58:39.246Z,73.47
2019-02-08T05:59:13.621Z,73.54
2019-02-08T05:59:47.976Z,73.43
2019-02-08T06:00:33.027Z,73.67
2019-02-08T06:01:07.643Z,73.30
2019-02-08T06:01:41.997Z,73.30
2019-02-08T06:02:16.943Z,73.15
2019-02-08T06:02:51.700Z,73.16
2019-02-08T06:03:26.299Z,73.44
2019-02-08T06:04:00.690Z,73.50
2019-02-08T06:04:35.614Z,73.40
2019-02-08T06:05:11.258Z,73.35
2019-02-08T06:05:46.045Z,73.31
2019-02-08T06:06:20.699Z,73.49
2019-02-08T06:06:55.292Z,73.61
2019-02-08T06:07:29.702Z,73.63
2019-02-08T06:08:05.617Z,73.51
2019-02-08T06:08:39.984Z,73.25
2019-02-08T06:09:14.351Z,73.06
2019-02-08T06:09:48.944Z,73.11
2019-02-08T06:10:23.301Z,72.99
2019-02-08T06:10:57.693Z,72.99
2019-02-08T06:11:33.069Z,72.93
2019-02-08T06:12:07.596Z,72.91
2019-02-08T06:12:41.970Z,73.00
2019-02-08T06:13:16.459Z,72.86
2019-02-08T06:13:51.155Z,72.95
2019-02-08T06:14:25.497Z,72.80
2019-02-08T06:14:59.879Z,72.96
2019-02-08T06:15:34.445Z,73.09
2019-02-08T06:16:08.905Z,72.88
2019-02-08T06:16:43.399Z,72.79
2019-02-08T06:17:18.041Z,72.74
2019-02-08T06:17:53.043Z,72.54
2019-02-08T06:18:27.454Z,72.59
2019-02-08T06:19:01.836Z,72.37
2019-02-08T06:19:36.197Z,72.33
2019-02-08T06:20:12.204Z,72.26
2019-02-08T06:20:46.568Z,72.33
2019-02-08T06:21:21.309Z,72.14
2019-02-08T06:21:55.712Z,72.08
2019-02-08T06:22:30.130Z,72.28
2019-02-08T06:23:05.198Z,72.34
2019-02-08T06:23:39.552Z,72.15
2019-02-08T06:24:14.260Z,72.15
2019-02-08T06:24:49.237Z,72.01
2019-02-08T06:25:24.069Z,72.13
2019-02-08T06:25:58.894Z,72.40
2019-02-08T06:26:33.498Z,72.28
2019-02-08T06:27:07.868Z,72.37
2019-02-08T06:27:42.700Z,72.35
2019-02-08T06:28:17.086Z,72.32
2019-02-08T06:28:51.491Z,72.46
2019-02-08T06:29:26.209Z,72.70
2019-02-08T06:30:00.593Z,72.78
2019-02-08T06:30:35.127Z,72.60
2019-02-08T06:31:09.739Z,72.59
2019-02-08T06:31:44.110Z,72.70
2019-02-08T06:32:18.464Z,72.51
2019-02-08T06:32:52.867Z,72.46
2019-02-08T06:33:27.627Z,72.36
2019-02-08T06:34:02.067Z,72.50
2019-02-08T06:34:36.430Z,72.36
2019-02-08T06:35:11.088Z,72.25
2019-02-08T06:35:45.552Z,71.99
2019-02-08T06:36:20.232Z,71.89
2019-02-08T06:36:54.894Z,71.84
2019-02-08T06:37:29.315Z,72.15
2019-02-08T06:38:03.696Z,72.19
2019-02-08T06:38:38.561Z,72.07
2019-02-08T06:39:12.912Z,72.28
2019-02-08T06:39:47.274Z,72.08
2019-02-08T06:40:23.078Z,72.06
2019-02-08T06:40:57.732Z,72.07
2019-02-08T06:41:32.344Z,72.17
2019-02-08T06:42:06.703Z,72.25
2019-02-08T06:42:41.351Z,72.30
2019-02-08T06:43:15.720Z,72.33
2019-02-08T06:43:50.312Z,72.32
2019-02-08T06:44:24.672Z,72.15
2019-02-08T06:44:59.059Z,72.07
2019-02-08T06:45:33.773Z,72.02
2019-02-08T06:46:08.161Z,72.22
2019-02-08T06:46:42.523Z,72.43
2019-02-08T06:47:16.990Z,72.27
2019-02-08T06:47:51.808Z,72.39
2019-02-08T06:48:26.215Z,72.48
2019-02-08T06:49:00.846Z,72.30
2019-02-08T06:49:35.744Z,72.25
2019-02-08T06:50:11.833Z,72.49
2019-02-08T06:50:46.207Z,72.54
2019-02-08T06:51:20.603Z,72.52
2019-02-08T06:51:55.263Z,72.77
2019-02-08T06:52:29.635Z,72.61
2019-02-08T06:53:04.020Z,72.56
2019-02-08T06:53:38.454Z,72.53
2019-02-08T06:54:12.820Z,72.37
2019-02-08T06:54:47.827Z,72.44
2019-02-08T06:55:22.616Z,72.51
2019-02-08T06:55:57.348Z,72.40
2019-02-08T06:56:49.519Z,72.58
2019-02-08T06:57:38.513Z,72.35
2019-02-08T06:58:30.133Z,72.24
2019-02-08T06:59:23.550Z,72.17
2019-02-08T07:00:05.890Z,72.31
2019-02-08T07:00:59.276Z,72.68
2019-02-08T07:02:07.879Z,72.58
2019-02-08T07:03:09.951Z,72.31
2019-02-08T07:04:00.788Z,72.32
2019-02-08T07:04:56.734Z,72.18
2019-02-08T07:05:49.138Z,72.41
2019-02-08T07:06:57.695Z,72.30
2019-02-08T07:07:49.713Z,72.36
2019-02-08T07:08:40.194Z,72.38
2019-02-08T07:09:39.596Z,72.48
2019-02-08T07:10:32.558Z,72.34
2019-02-08T07:11:34.790Z,72.35
2019-02-08T07:12:42.953Z,72.46
2019-02-08T07:13:34.372Z,72.42
2019-02-08T07:14:26.662Z,72.08
2019-02-08T07:15:23.196Z,72.12
2019-02-08T07:16:22.823Z,72.41
2019-02-08T07:17:21.956Z,71.92
2019-02-08T07:18:15.648Z,71.72
2019-02-08T07:18:57.753Z,71.50
2019-02-08T07:19:57.461Z,71.92
2019-02-08T07:20:53.780Z,71.77
2019-02-08T07:21:42.435Z,71.90
2019-02-08T07:22:36.013Z,71.90
2019-02-08T07:23:24.698Z,71.79
2019-02-08T07:24:17.001Z,72.01
2019-02-08T07:25:09.662Z,72.05
2019-02-08T07:26:09.138Z,71.54
2019-02-08T07:27:08.101Z,71.49
2019-02-08T07:27:49.162Z,71.51
2019-02-08T07:28:54.408Z,71.75
2019-02-08T07:29:35.105Z,71.50
2019-02-08T07:30:33.565Z,71.45
2019-02-08T07:31:23.109Z,71.59
2019-02-08T07:32:22.734Z,71.51
2019-02-08T07:33:07.142Z,71.34
2019-02-08T07:33:59.099Z,71.34
2019-02-08T07:34:55.672Z,71.43
2019-02-08T07:35:38.436Z,70.99
2019-02-08T07:36:26.965Z,71.06
2019-02-08T07:37:19.114Z,71.15
2019-02-08T07:38:11.731Z,71.17
2019-02-08T07:39:05.984Z,71.17
2019-02-08T07:40:04.770Z,71.01
2019-02-08T07:41:04.079Z,70.74
2019-02-08T07:42:03.875Z,70.75
2019-02-08T07:42:56.649Z,71.00
2019-02-08T07:43:45.935Z,71.27
2019-02-08T07:44:44.987Z,71.11